»·PEaware :: N54JA L35-KONT

N54JA :: L35-KONT

FLIGHT INFORMATION

Flight Status: Arrived
Operator: Privately registered:
United States
More flights under this callsign
Pilot: Kevin S. (26378)
Aircraft: CESSNA 172 SKYHAWK
(C172)
More flights by this aircraft type
Origin: L35 Big Bear City
United States
Destination: KONT Ontario Intl
United States
More flights between these airports :: More routes between these airports
Route:
File this flight plan on PilotEdge
Remarks:
Altitude:
(Current/Filed)
7,500ft
Speed:
(Current/Filed)
110kts
Departed: 14-Nov-19 08:30 PM
Arrived: 14-Nov-19 09:16 PM
Distance/Time
Traveled:
39nm/0:46
Distance/Time
To Go:
Arrived

Flight Plot

Page will automatically refresh every two minutes.


Map Options




Map Legend


Flown Route
Filed Route
Departure Airport
Arrival Airport
Navaid (VOR, NDB)
Fix

Horizontal Profiles

Position Reports

Time Latitude Longitude Heading Altitude Ground
Speed
14-Nov-19 20:14 34.264455 -116.851596 269 6754ft 0kts
14-Nov-19 20:15 34.264455 -116.851596 269 6754ft 0kts
14-Nov-19 20:16 34.264455 -116.851596 269 6754ft 0kts
14-Nov-19 20:17 34.264455 -116.851596 269 6754ft 0kts
14-Nov-19 20:18 34.264455 -116.851596 269 6754ft 0kts
14-Nov-19 20:19 34.264455 -116.851596 269 6754ft 0kts
14-Nov-19 20:20 34.264455 -116.851596 269 6754ft 0kts
14-Nov-19 20:21 34.264455 -116.851596 269 6754ft 0kts
14-Nov-19 20:22 34.264364 -116.851578 118 6754ft 5kts
14-Nov-19 20:23 34.264315 -116.850123 88 6754ft 0kts
14-Nov-19 20:24 34.264328 -116.849790 84 6754ft 9kts
14-Nov-19 20:25 34.264336 -116.848880 90 6754ft 0kts
14-Nov-19 20:26 34.264336 -116.848880 90 6754ft 0kts
14-Nov-19 20:27 34.264311 -116.847982 87 6754ft 14kts
14-Nov-19 20:28 34.264123 -116.847045 269 6754ft 13kts
14-Nov-19 20:29 34.264129 -116.866100 264 6951ft 84kts
14-Nov-19 20:30 34.250850 -116.859617 88 7554ft 88kts
14-Nov-19 20:31 34.253807 -116.827814 60 7678ft 88kts
14-Nov-19 20:32 34.263868 -116.838012 272 7102ft 72kts
14-Nov-19 20:33 34.263841 -116.854704 268 6754ft 0kts
14-Nov-19 20:34 34.263714 -116.867681 265 6856ft 81kts
14-Nov-19 20:35 34.253394 -116.875486 100 7451ft 91kts
14-Nov-19 20:36 34.252052 -116.842328 95 7783ft 99kts
14-Nov-19 20:37 34.259383 -116.819555 336 7436ft 76kts
14-Nov-19 20:38 34.263875 -116.841638 269 6933ft 71kts
14-Nov-19 20:39 34.263772 -116.863405 266 6834ft 80kts
14-Nov-19 20:40 34.258595 -116.891036 270 7489ft 82kts
14-Nov-19 20:41 34.254462 -116.917353 261 8129ft 80kts
14-Nov-19 20:42 34.247767 -116.946508 250 8492ft 100kts
14-Nov-19 20:43 34.245011 -116.979928 274 8576ft 122kts
14-Nov-19 20:44 34.225000 -117.005219 198 8538ft 103kts
14-Nov-19 20:45 34.199740 -116.995454 202 8287ft 105kts
14-Nov-19 20:46 34.171236 -117.005823 206 8153ft 91kts
14-Nov-19 20:47 34.153998 -117.014963 210 7701ft 60kts
14-Nov-19 20:48 34.146025 -117.034755 261 7172ft 101kts
14-Nov-19 20:49 34.146662 -117.062686 339 7791ft 100kts
14-Nov-19 20:50 34.161910 -117.034369 42 8364ft 102kts
14-Nov-19 20:51 34.172684 -117.047271 229 8628ft 91kts
14-Nov-19 20:52 34.153974 -117.068759 220 8095ft 95kts
14-Nov-19 20:53 34.135627 -117.092435 238 7124ft 98kts
14-Nov-19 20:54 34.123538 -117.120007 212 6316ft 102kts
14-Nov-19 20:55 34.098031 -117.114312 142 5483ft 101kts
14-Nov-19 20:56 34.096571 -117.086748 22 5164ft 103kts
14-Nov-19 20:57 34.107538 -117.111382 278 5177ft 93kts
14-Nov-19 20:58 34.098157 -117.138939 239 5136ft 92kts
14-Nov-19 20:59 34.102978 -117.168642 292 5240ft 92kts
14-Nov-19 21:00 34.109059 -117.198316 260 5362ft 93kts
14-Nov-19 21:01 34.108268 -117.229128 278 5266ft 92kts
14-Nov-19 21:02 34.112027 -117.259605 274 5248ft 91kts
14-Nov-19 21:03 34.112261 -117.290540 265 5247ft 92kts
14-Nov-19 21:04 34.104547 -117.319638 233 5242ft 92kts
14-Nov-19 21:05 34.087334 -117.332116 194 5230ft 94kts
14-Nov-19 21:06 34.068755 -117.348564 260 5186ft 89kts
14-Nov-19 21:07 34.075855 -117.377615 297 4886ft 94kts
14-Nov-19 21:08 34.082366 -117.407108 279 4735ft 93kts
14-Nov-19 21:09 34.084098 -117.437523 263 4330ft 90kts
14-Nov-19 21:10 34.083432 -117.467759 273 4063ft 89kts
14-Nov-19 21:11 34.078959 -117.497747 228 4142ft 96kts
14-Nov-19 21:12 34.059145 -117.521110 234 3749ft 106kts
14-Nov-19 21:13 34.054319 -117.555836 245 2373ft 101kts
14-Nov-19 21:14 34.055051 -117.586216 280 1020ft 82kts
14-Nov-19 21:15 34.054314 -117.598157 161 916ft 13kts

Navigation Log

Ident Type
Flight plan parsing failed, navigation log unavailable